ISS Breeze — HOVF — position and weather

sailwx.info

Track history (hours):
 
Tides and Currents Weather Stations Pressure Air Temp Water Temp Dewpoint Dewpoint Depression Visibility Wind Speed Wind Dir Waves Ship Positions

ISS Breeze

Last reported at 2018-May-11 21:10 UTC. Time now 2018-Jun-18 17:15 UTC.
Position N 09°11' W 079°52'.
Warning: this ship's position is 37 days out of date.

Length 178 m; draft 10.7 m.

Type: Ship. MMSI: 374956000.

Date/timePositionNaut miles runAvg speedWind from/ knotsBaromVisibWave heightAir tempDewpointWater temp
2018-May-11 21:10N 09°11' W 079°52'210.5
2018-May-11 20:59N 09°12' W 079°53'4 8.6
2018-May-11 20:30N 09°15' W 079°55'0 0.8
2018-May-11 19:58N 09°15' W 079°55'0 0.0
2018-May-11 19:28N 09°15' W 079°55'0 0.1
2018-May-11 18:55N 09°15' W 079°55'0 0.0
2018-May-11 18:28N 09°15' W 079°55'0 0.0
2018-May-11 17:55N 09°15' W 079°55'0 0.0
2018-May-11 17:25N 09°15' W 079°55'0 0.0
2018-May-11 16:58N 09°15' W 079°55'0 0.0
2018-May-11 16:28N 09°15' W 079°55'0 0.1
2018-May-11 15:55N 09°15' W 079°55'0 0.1
2018-May-11 15:28N 09°15' W 079°55'0 0.1
2018-May-11 14:58N 09°15' W 079°55'0 0.0
2018-May-11 13:34N 09°15' W 079°55'0 0.0
2018-May-11 13:19N 09°15' W 079°55'0 0.1
2018-May-11 12:55N 09°15' W 079°55'0 0.1
2018-May-11 12:28N 09°15' W 079°55'0 0.0
2018-May-11 11:58N 09°15' W 079°55'0 0.0
2018-May-11 11:25N 09°15' W 079°55'0 0.0
2018-May-11 10:58N 09°15' W 079°55'0 0.0
2018-May-11 10:28N 09°15' W 079°55'0 0.0
2018-May-11 09:58N 09°15' W 079°55'0 0.0
2018-May-11 09:28N 09°15' W 079°55'0 0.0
2018-May-11 08:58N 09°15' W 079°55'0 0.0
2018-May-11 08:28N 09°15' W 079°55'0 0.0
2018-May-11 07:58N 09°15' W 079°55'0 0.0
2018-May-11 07:28N 09°15' W 079°55'0 0.0
2018-May-11 06:58N 09°15' W 079°55'0 0.0
2018-May-11 06:28N 09°15' W 079°55'0 0.0
2018-May-11 05:55N 09°15' W 079°55'0 0.0
2018-May-11 05:25N 09°15' W 079°55'0 0.0
2018-May-11 04:58N 09°15' W 079°55'0 0.0
2018-May-11 04:28N 09°15' W 079°55'0 0.0
2018-May-11 03:58N 09°15' W 079°55'0 0.0
2018-May-11 03:25N 09°15' W 079°55'0 0.1
2018-May-11 02:55N 09°15' W 079°55'0 0.1
2018-May-11 02:28N 09°15' W 079°55'0 0.2
2018-May-11 01:58N 09°15' W 079°55'1 1.6
2018-May-11 01:30N 09°16' W 079°55'0 0.7
2018-May-11 01:00N 09°16' W 079°55'0 0.4
2018-May-11 00:29N 09°17' W 079°55'1 1.2
2018-May-11 00:00N 09°17' W 079°55'2 3.7
2018-May-10 23:30N 09°19' W 079°55'2 4.5
2018-May-10 22:59N 09°21' W 079°55'0 0.0
2018-May-10 22:30N 09°21' W 079°55'0 0.0
2018-May-10 22:00N 09°21' W 079°55'0 0.0
2018-May-10 21:29N 09°21' W 079°55'0 0.1
2018-May-10 21:00N 09°21' W 079°55'0 0.2
2018-May-10 20:30N 09°21' W 079°55'0 0.1
2018-May-10 20:00N 09°21' W 079°56'0 0.1
2018-May-10 19:30N 09°21' W 079°55'0 0.1
2018-May-10 19:00N 09°21' W 079°56'0 0.0
2018-May-10 18:31N 09°21' W 079°56'0 0.1
2018-May-10 18:00N 09°21' W 079°55'1 1.1
2018-May-10 17:30N 09°22' W 079°55'2 4.3
2018-May-10 16:59N 09°24' W 079°55'4 7.8
2018-May-10 16:30N 09°28' W 079°56'0 0.5
2018-May-10 16:01N 09°27' W 079°56'0 0.0
2018-May-10 15:30N 09°27' W 079°56'0 0.0
2018-May-10 15:00N 09°27' W 079°56'0 0.1
2018-May-10 14:30N 09°27' W 079°56'0 0.0
2018-May-10 14:00N 09°27' W 079°56'0 0.0
2018-May-10 13:30N 09°27' W 079°56'0 0.0
2018-May-10 13:00N 09°27' W 079°56'0 0.0
2018-May-10 12:30N 09°27' W 079°56'0 0.0
2018-May-10 12:00N 09°27' W 079°56'0 0.0
2018-May-10 11:30N 09°27' W 079°56'0 0.0
2018-May-10 11:00N 09°27' W 079°56'0 0.0
2018-May-10 10:30N 09°27' W 079°56'0 0.0
2018-May-10 10:00N 09°27' W 079°56'0 0.0
2018-May-10 09:30N 09°27' W 079°56'0 0.0
2018-May-10 08:59N 09°27' W 079°56'0 0.0
2018-May-10 08:30N 09°27' W 079°56'0 0.0
2018-May-10 08:01N 09°27' W 079°56'0 0.0
2018-May-10 07:30N 09°27' W 079°56'0 0.0
2018-May-10 07:00N 09°27' W 079°56'0 0.0
2018-May-10 06:30N 09°27' W 079°56'0 0.0
2018-May-10 06:00N 09°27' W 079°56'0 0.0
2018-May-10 05:29N 09°27' W 079°56'0 0.0
2018-May-10 05:00N 09°27' W 079°56'0 0.0
2018-May-10 04:30N 09°27' W 079°56'0 0.0
2018-May-10 03:59N 09°27' W 079°56'0 0.0
2018-May-10 03:30N 09°27' W 079°56'0 0.0
2018-May-10 02:55N 09°27' W 079°56'0 0.0
2018-May-10 02:29N 09°27' W 079°56'0 0.0
2018-May-10 02:00N 09°27' W 079°56'0 0.0
2018-May-10 01:30N 09°27' W 079°56'0 0.0
2018-May-10 01:00N 09°27' W 079°56'0 0.0
2018-May-10 00:30N 09°27' W 079°56'0 0.0
2018-May-10 00:00N 09°27' W 079°56'0 0.0
2018-May-09 23:30N 09°27' W 079°56'0 0.0
2018-May-09 23:00N 09°27' W 079°56'0 0.0
2018-May-09 22:28N 09°27' W 079°56'0 0.0
2018-May-09 22:00N 09°27' W 079°56'0 0.0
2018-May-09 21:30N 09°27' W 079°56'0 0.0
2018-May-09 20:57N 09°27' W 079°56'0 0.0
2018-May-09 20:29N 09°27' W 079°56'0 0.0
2018-May-09 20:00N 09°27' W 079°56'0 0.0
2018-May-09 19:29N 09°27' W 079°56'0 0.0
2018-May-09 19:00N 09°27' W 079°56'0 0.0
2018-May-09 18:20N 09°27' W 079°56'0 0.0
2018-May-09 18:00N 09°27' W 079°56'0 0.0
2018-May-09 17:30N 09°27' W 079°56'0 0.0
2018-May-09 16:57N 09°27' W 079°56'0 0.0
2018-May-09 16:30N 09°27' W 079°56'0 0.0
2018-May-09 15:54N 09°27' W 079°56'0 0.0
2018-May-09 15:30N 09°27' W 079°56'0 0.0
2018-May-09 14:59N 09°27' W 079°56'0 0.0
2018-May-09 14:30N 09°27' W 079°56'0 0.0
2018-May-09 13:59N 09°27' W 079°56'0 0.0
2018-May-09 13:30N 09°27' W 079°56'0 0.0
2018-May-09 12:58N 09°27' W 079°56'0 0.0
2018-May-09 12:30N 09°27' W 079°56'0 0.0
2018-May-09 12:00N 09°27' W 079°56'0 0.0
2018-May-09 11:30N 09°27' W 079°56'0 0.0
2018-May-09 11:01N 09°27' W 079°56'0 0.0
2018-May-09 10:30N 09°27' W 079°56'0 0.0
2018-May-09 09:58N 09°27' W 079°56'0 0.0
2018-May-09 09:30N 09°27' W 079°56'0 0.0
2018-May-09 09:00N 09°27' W 079°56'0 0.0
2018-May-09 08:29N 09°27' W 079°56'0 0.0
2018-May-09 08:00N 09°27' W 079°56'0 0.0
2018-May-09 07:29N 09°27' W 079°56'0 0.0
2018-May-09 07:00N 09°27' W 079°56'0 0.0
2018-May-09 06:28N 09°27' W 079°56'0 0.2
2018-May-09 06:00N 09°27' W 079°56'1 1.0
2018-May-09 05:30N 09°27' W 079°55'1 2.4
2018-May-09 05:00N 09°27' W 079°57'3 5.9
2018-May-09 04:30N 09°30' W 079°55'3 6.4
2018-May-09 03:59N 09°32' W 079°53'  
2018-May-04 19:30N 27°12' W 083°12'40 9.5
2018-May-04 15:17N 27°38' W 082°37'5 9.7
2018-May-04 14:47N 27°42' W 082°33'3 9.9
2018-May-04 14:30N 27°44' W 082°32'4 8.9
2018-May-04 14:00N 27°48' W 082°29'4 8.7
2018-May-04 13:30N 27°52' W 082°27'3 6.7
2018-May-04 13:00N 27°55' W 082°26'0 0.9
2018-May-04 12:29N 27°55' W 082°25'0 0.0
2018-May-04 11:59N 27°55' W 082°25'0 0.0
2018-May-04 11:29N 27°55' W 082°25'0 0.0
2018-May-04 10:59N 27°55' W 082°25'0 0.0
2018-May-04 10:29N 27°55' W 082°25'0 0.0
2018-May-04 09:59N 27°55' W 082°25'0 0.0
2018-May-04 09:29N 27°55' W 082°25'0 0.0
2018-May-04 08:59N 27°55' W 082°25'0 0.0
2018-May-04 08:29N 27°55' W 082°25'0 0.0
2018-May-04 07:59N 27°55' W 082°25'0 0.0
2018-May-04 07:29N 27°55' W 082°25'0 0.0
2018-May-04 06:59N 27°55' W 082°25'0 0.0
2018-May-04 06:29N 27°55' W 082°25'0 0.0
2018-May-04 05:59N 27°55' W 082°25'0 0.0
2018-May-04 05:29N 27°55' W 082°25'0 0.0
2018-May-04 04:59N 27°55' W 082°25'0 0.0
2018-May-04 04:29N 27°55' W 082°25'0 0.0
2018-May-04 03:59N 27°55' W 082°25'0 0.0
2018-May-04 03:29N 27°55' W 082°25'0 0.0
2018-May-04 02:59N 27°55' W 082°25'0 0.0
2018-May-04 02:29N 27°55' W 082°25'0 0.0
2018-May-04 01:59N 27°55' W 082°25'0 0.0
2018-May-04 01:29N 27°55' W 082°25'0 0.0
2018-May-04 00:59N 27°55' W 082°25'0 0.0
2018-May-04 00:29N 27°55' W 082°25'0 0.0
2018-May-03 23:59N 27°55' W 082°25'0 0.0
2018-May-03 23:29N 27°55' W 082°25'0 0.0
2018-May-03 22:59N 27°55' W 082°25'0 0.0
2018-May-03 22:29N 27°55' W 082°25'0 0.0
2018-May-03 21:59N 27°55' W 082°25'0 0.0
2018-May-03 21:29N 27°55' W 082°25'0 0.0
2018-May-03 20:59N 27°55' W 082°25'0 0.0
2018-May-03 20:29N 27°55' W 082°25'0 0.0
2018-May-03 19:59N 27°55' W 082°25'0 0.0
2018-May-03 19:29N 27°55' W 082°25'0 0.0
2018-May-03 18:59N 27°55' W 082°25'0 0.0
2018-May-03 18:29N 27°55' W 082°25'0 0.0
2018-May-03 17:59N 27°55' W 082°25'0 0.0
2018-May-03 17:29N 27°55' W 082°25'0 0.0
2018-May-03 16:59N 27°55' W 082°25'0 0.0
2018-May-03 16:29N 27°55' W 082°25'0 0.0
2018-May-03 15:59N 27°55' W 082°25'0 0.0
2018-May-03 15:29N 27°55' W 082°25'0 0.0
2018-May-03 14:59N 27°55' W 082°25'0 0.0
2018-May-03 14:29N 27°55' W 082°25'0 0.0
2018-May-03 13:59N 27°55' W 082°25'0 0.0
2018-May-03 13:29N 27°55' W 082°25'0 0.0
2018-May-03 12:59N 27°55' W 082°25'0 0.0
2018-May-03 12:29N 27°55' W 082°25'0 0.0
2018-May-03 11:59N 27°55' W 082°25'0 0.0
2018-May-03 11:29N 27°55' W 082°25'0 0.0
2018-May-03 10:59N 27°55' W 082°25'0 0.0
2018-May-03 10:29N 27°55' W 082°25'0 0.0
2018-May-03 09:59N 27°55' W 082°25'0 0.0
2018-May-03 09:29N 27°55' W 082°25'0 0.0
2018-May-03 08:59N 27°55' W 082°25'0 0.0
2018-May-03 08:29N 27°55' W 082°25'0 0.0
2018-May-03 07:59N 27°55' W 082°25'0 0.0
2018-May-03 07:29N 27°55' W 082°25'0 0.0
2018-May-03 06:59N 27°55' W 082°25'0 0.0
2018-May-03 06:29N 27°55' W 082°25'0 0.0
2018-May-03 05:59N 27°55' W 082°25'0 0.0
2018-May-03 05:29N 27°55' W 082°25'0 0.0
2018-May-03 04:59N 27°55' W 082°25'0 0.0
2018-May-03 04:29N 27°55' W 082°25'0 0.0
2018-May-03 03:59N 27°55' W 082°25'0 0.0
2018-May-03 03:29N 27°55' W 082°25'0 0.0
2018-May-03 02:59N 27°55' W 082°25'0 0.0
2018-May-03 02:29N 27°55' W 082°25'0 0.0
2018-May-03 01:59N 27°55' W 082°25'0 0.0
2018-May-03 01:29N 27°55' W 082°25'0 0.0
2018-May-03 00:59N 27°55' W 082°25'0 0.0
2018-May-03 00:29N 27°55' W 082°25'0 0.0
2018-May-02 23:59N 27°55' W 082°25'0 0.0
2018-May-02 23:29N 27°55' W 082°25'0 0.0
2018-May-02 22:59N 27°55' W 082°25'0 0.0
2018-May-02 22:29N 27°55' W 082°25'0 0.0
2018-May-02 21:59N 27°55' W 082°25'0 0.0
2018-May-02 21:29N 27°55' W 082°25'0 0.0
2018-May-02 20:59N 27°55' W 082°25'1 1.9
2018-May-02 20:30N 27°54' W 082°26'5 9.2
2018-May-02 20:00N 27°50' W 082°27'510.5
2018-May-02 19:30N 27°47' W 082°31'611.5
2018-May-02 19:00N 27°41' W 082°34'611.8
2018-May-02 18:28N 27°37' W 082°39'612.2
2018-May-02 17:58N 27°37' W 082°46'  
Track history (hours):
 
Tides and Currents Weather Stations Pressure Air Temp Water Temp Dewpoint Dewpoint Depression Visibility Wind Speed Wind Dir Waves Ship Positions

ISS Breeze

Last reported at 2018-May-11 21:10 UTC. Time now 2018-Jun-18 17:15 UTC.
Position N 09°11' W 079°52'.
Warning: this ship's position is 37 days out of date.

Length 178 m; draft 10.7 m.

Type: Ship. MMSI: 374956000.

Date/timePositionNaut miles runAvg speedWind from/ knotsBaromVisibWave heightAir tempDewpointWater temp
2018-May-11 21:10N 09°11' W 079°52'210.5
2018-May-11 20:59N 09°12' W 079°53'4 8.6
2018-May-11 20:30N 09°15' W 079°55'0 0.8
2018-May-11 19:58N 09°15' W 079°55'0 0.0
2018-May-11 19:28N 09°15' W 079°55'0 0.1
2018-May-11 18:55N 09°15' W 079°55'0 0.0
2018-May-11 18:28N 09°15' W 079°55'0 0.0
2018-May-11 17:55N 09°15' W 079°55'0 0.0
2018-May-11 17:25N 09°15' W 079°55'0 0.0
2018-May-11 16:58N 09°15' W 079°55'0 0.0
2018-May-11 16:28N 09°15' W 079°55'0 0.1
2018-May-11 15:55N 09°15' W 079°55'0 0.1
2018-May-11 15:28N 09°15' W 079°55'0 0.1
2018-May-11 14:58N 09°15' W 079°55'0 0.0
2018-May-11 13:34N 09°15' W 079°55'0 0.0
2018-May-11 13:19N 09°15' W 079°55'0 0.1
2018-May-11 12:55N 09°15' W 079°55'0 0.1
2018-May-11 12:28N 09°15' W 079°55'0 0.0
2018-May-11 11:58N 09°15' W 079°55'0 0.0
2018-May-11 11:25N 09°15' W 079°55'0 0.0
2018-May-11 10:58N 09°15' W 079°55'0 0.0
2018-May-11 10:28N 09°15' W 079°55'0 0.0
2018-May-11 09:58N 09°15' W 079°55'0 0.0
2018-May-11 09:28N 09°15' W 079°55'0 0.0
2018-May-11 08:58N 09°15' W 079°55'0 0.0
2018-May-11 08:28N 09°15' W 079°55'0 0.0
2018-May-11 07:58N 09°15' W 079°55'0 0.0
2018-May-11 07:28N 09°15' W 079°55'0 0.0
2018-May-11 06:58N 09°15' W 079°55'0 0.0
2018-May-11 06:28N 09°15' W 079°55'0 0.0
2018-May-11 05:55N 09°15' W 079°55'0 0.0
2018-May-11 05:25N 09°15' W 079°55'0 0.0
2018-May-11 04:58N 09°15' W 079°55'0 0.0
2018-May-11 04:28N 09°15' W 079°55'0 0.0
2018-May-11 03:58N 09°15' W 079°55'0 0.0
2018-May-11 03:25N 09°15' W 079°55'0 0.1
2018-May-11 02:55N 09°15' W 079°55'0 0.1
2018-May-11 02:28N 09°15' W 079°55'0 0.2
2018-May-11 01:58N 09°15' W 079°55'1 1.6
2018-May-11 01:30N 09°16' W 079°55'0 0.7
2018-May-11 01:00N 09°16' W 079°55'0 0.4
2018-May-11 00:29N 09°17' W 079°55'1 1.2
2018-May-11 00:00N 09°17' W 079°55'2 3.7
2018-May-10 23:30N 09°19' W 079°55'2 4.5
2018-May-10 22:59N 09°21' W 079°55'0 0.0
2018-May-10 22:30N 09°21' W 079°55'0 0.0
2018-May-10 22:00N 09°21' W 079°55'0 0.0
2018-May-10 21:29N 09°21' W 079°55'0 0.1
2018-May-10 21:00N 09°21' W 079°55'0 0.2
2018-May-10 20:30N 09°21' W 079°55'0 0.1
2018-May-10 20:00N 09°21' W 079°56'0 0.1
2018-May-10 19:30N 09°21' W 079°55'0 0.1
2018-May-10 19:00N 09°21' W 079°56'0 0.0
2018-May-10 18:31N 09°21' W 079°56'0 0.1
2018-May-10 18:00N 09°21' W 079°55'1 1.1
2018-May-10 17:30N 09°22' W 079°55'2 4.3
2018-May-10 16:59N 09°24' W 079°55'4 7.8
2018-May-10 16:30N 09°28' W 079°56'0 0.5
2018-May-10 16:01N 09°27' W 079°56'0 0.0
2018-May-10 15:30N 09°27' W 079°56'0 0.0
2018-May-10 15:00N 09°27' W 079°56'0 0.1
2018-May-10 14:30N 09°27' W 079°56'0 0.0
2018-May-10 14:00N 09°27' W 079°56'0 0.0
2018-May-10 13:30N 09°27' W 079°56'0 0.0
2018-May-10 13:00N 09°27' W 079°56'0 0.0
2018-May-10 12:30N 09°27' W 079°56'0 0.0
2018-May-10 12:00N 09°27' W 079°56'0 0.0
2018-May-10 11:30N 09°27' W 079°56'0 0.0
2018-May-10 11:00N 09°27' W 079°56'0 0.0
2018-May-10 10:30N 09°27' W 079°56'0 0.0
2018-May-10 10:00N 09°27' W 079°56'0 0.0
2018-May-10 09:30N 09°27' W 079°56'0 0.0
2018-May-10 08:59N 09°27' W 079°56'0 0.0
2018-May-10 08:30N 09°27' W 079°56'0 0.0
2018-May-10 08:01N 09°27' W 079°56'0 0.0
2018-May-10 07:30N 09°27' W 079°56'0 0.0
2018-May-10 07:00N 09°27' W 079°56'0 0.0
2018-May-10 06:30N 09°27' W 079°56'0 0.0
2018-May-10 06:00N 09°27' W 079°56'0 0.0
2018-May-10 05:29N 09°27' W 079°56'0 0.0
2018-May-10 05:00N 09°27' W 079°56'0 0.0
2018-May-10 04:30N 09°27' W 079°56'0 0.0
2018-May-10 03:59N 09°27' W 079°56'0 0.0
2018-May-10 03:30N 09°27' W 079°56'0 0.0
2018-May-10 02:55N 09°27' W 079°56'0 0.0
2018-May-10 02:29N 09°27' W 079°56'0 0.0
2018-May-10 02:00N 09°27' W 079°56'0 0.0
2018-May-10 01:30N 09°27' W 079°56'0 0.0
2018-May-10 01:00N 09°27' W 079°56'0 0.0
2018-May-10 00:30N 09°27' W 079°56'0 0.0
2018-May-10 00:00N 09°27' W 079°56'0 0.0
2018-May-09 23:30N 09°27' W 079°56'0 0.0
2018-May-09 23:00N 09°27' W 079°56'0 0.0
2018-May-09 22:28N 09°27' W 079°56'0 0.0
2018-May-09 22:00N 09°27' W 079°56'0 0.0
2018-May-09 21:30N 09°27' W 079°56'0 0.0
2018-May-09 20:57N 09°27' W 079°56'0 0.0
2018-May-09 20:29N 09°27' W 079°56'0 0.0
2018-May-09 20:00N 09°27' W 079°56'0 0.0
2018-May-09 19:29N 09°27' W 079°56'0 0.0
2018-May-09 19:00N 09°27' W 079°56'0 0.0
2018-May-09 18:20N 09°27' W 079°56'0 0.0
2018-May-09 18:00N 09°27' W 079°56'0 0.0
2018-May-09 17:30N 09°27' W 079°56'0 0.0
2018-May-09 16:57N 09°27' W 079°56'0 0.0
2018-May-09 16:30N 09°27' W 079°56'0 0.0
2018-May-09 15:54N 09°27' W 079°56'0 0.0
2018-May-09 15:30N 09°27' W 079°56'0 0.0
2018-May-09 14:59N 09°27' W 079°56'0 0.0
2018-May-09 14:30N 09°27' W 079°56'0 0.0
2018-May-09 13:59N 09°27' W 079°56'0 0.0
2018-May-09 13:30N 09°27' W 079°56'0 0.0
2018-May-09 12:58N 09°27' W 079°56'0 0.0
2018-May-09 12:30N 09°27' W 079°56'0 0.0
2018-May-09 12:00N 09°27' W 079°56'0 0.0
2018-May-09 11:30N 09°27' W 079°56'0 0.0
2018-May-09 11:01N 09°27' W 079°56'0 0.0
2018-May-09 10:30N 09°27' W 079°56'0 0.0
2018-May-09 09:58N 09°27' W 079°56'0 0.0
2018-May-09 09:30N 09°27' W 079°56'0 0.0
2018-May-09 09:00N 09°27' W 079°56'0 0.0
2018-May-09 08:29N 09°27' W 079°56'0 0.0
2018-May-09 08:00N 09°27' W 079°56'0 0.0
2018-May-09 07:29N 09°27' W 079°56'0 0.0
2018-May-09 07:00N 09°27' W 079°56'0 0.0
2018-May-09 06:28N 09°27' W 079°56'0 0.2
2018-May-09 06:00N 09°27' W 079°56'1 1.0
2018-May-09 05:30N 09°27' W 079°55'1 2.4
2018-May-09 05:00N 09°27' W 079°57'3 5.9
2018-May-09 04:30N 09°30' W 079°55'3 6.4
2018-May-09 03:59N 09°32' W 079°53'  
2018-May-04 19:30N 27°12' W 083°12'40 9.5
2018-May-04 15:17N 27°38' W 082°37'5 9.7
2018-May-04 14:47N 27°42' W 082°33'3 9.9
2018-May-04 14:30N 27°44' W 082°32'4 8.9
2018-May-04 14:00N 27°48' W 082°29'4 8.7
2018-May-04 13:30N 27°52' W 082°27'3 6.7
2018-May-04 13:00N 27°55' W 082°26'0 0.9
2018-May-04 12:29N 27°55' W 082°25'0 0.0
2018-May-04 11:59N 27°55' W 082°25'0 0.0
2018-May-04 11:29N 27°55' W 082°25'0 0.0
2018-May-04 10:59N 27°55' W 082°25'0 0.0
2018-May-04 10:29N 27°55' W 082°25'0 0.0
2018-May-04 09:59N 27°55' W 082°25'0 0.0
2018-May-04 09:29N 27°55' W 082°25'0 0.0
2018-May-04 08:59N 27°55' W 082°25'0 0.0
2018-May-04 08:29N 27°55' W 082°25'0 0.0
2018-May-04 07:59N 27°55' W 082°25'0 0.0
2018-May-04 07:29N 27°55' W 082°25'0 0.0
2018-May-04 06:59N 27°55' W 082°25'0 0.0
2018-May-04 06:29N 27°55' W 082°25'0 0.0
2018-May-04 05:59N 27°55' W 082°25'0 0.0
2018-May-04 05:29N 27°55' W 082°25'0 0.0
2018-May-04 04:59N 27°55' W 082°25'0 0.0
2018-May-04 04:29N 27°55' W 082°25'0 0.0
2018-May-04 03:59N 27°55' W 082°25'0 0.0
2018-May-04 03:29N 27°55' W 082°25'0 0.0
2018-May-04 02:59N 27°55' W 082°25'0 0.0
2018-May-04 02:29N 27°55' W 082°25'0 0.0
2018-May-04 01:59N 27°55' W 082°25'0 0.0
2018-May-04 01:29N 27°55' W 082°25'0 0.0
2018-May-04 00:59N 27°55' W 082°25'0 0.0
2018-May-04 00:29N 27°55' W 082°25'0 0.0
2018-May-03 23:59N 27°55' W 082°25'0 0.0
2018-May-03 23:29N 27°55' W 082°25'0 0.0
2018-May-03 22:59N 27°55' W 082°25'0 0.0
2018-May-03 22:29N 27°55' W 082°25'0 0.0
2018-May-03 21:59N 27°55' W 082°25'0 0.0
2018-May-03 21:29N 27°55' W 082°25'0 0.0
2018-May-03 20:59N 27°55' W 082°25'0 0.0
2018-May-03 20:29N 27°55' W 082°25'0 0.0
2018-May-03 19:59N 27°55' W 082°25'0 0.0
2018-May-03 19:29N 27°55' W 082°25'0 0.0
2018-May-03 18:59N 27°55' W 082°25'0 0.0
2018-May-03 18:29N 27°55' W 082°25'0 0.0
2018-May-03 17:59N 27°55' W 082°25'0 0.0
2018-May-03 17:29N 27°55' W 082°25'0 0.0
2018-May-03 16:59N 27°55' W 082°25'0 0.0
2018-May-03 16:29N 27°55' W 082°25'0 0.0
2018-May-03 15:59N 27°55' W 082°25'0 0.0
2018-May-03 15:29N 27°55' W 082°25'0 0.0
2018-May-03 14:59N 27°55' W 082°25'0 0.0
2018-May-03 14:29N 27°55' W 082°25'0 0.0
2018-May-03 13:59N 27°55' W 082°25'0 0.0
2018-May-03 13:29N 27°55' W 082°25'0 0.0
2018-May-03 12:59N 27°55' W 082°25'0 0.0
2018-May-03 12:29N 27°55' W 082°25'0 0.0
2018-May-03 11:59N 27°55' W 082°25'0 0.0
2018-May-03 11:29N 27°55' W 082°25'0 0.0
2018-May-03 10:59N 27°55' W 082°25'0 0.0
2018-May-03 10:29N 27°55' W 082°25'0 0.0
2018-May-03 09:59N 27°55' W 082°25'0 0.0
2018-May-03 09:29N 27°55' W 082°25'0 0.0
2018-May-03 08:59N 27°55' W 082°25'0 0.0
2018-May-03 08:29N 27°55' W 082°25'0 0.0
2018-May-03 07:59N 27°55' W 082°25'0 0.0
2018-May-03 07:29N 27°55' W 082°25'0 0.0
2018-May-03 06:59N 27°55' W 082°25'0 0.0
2018-May-03 06:29N 27°55' W 082°25'0 0.0
2018-May-03 05:59N 27°55' W 082°25'0 0.0
2018-May-03 05:29N 27°55' W 082°25'0 0.0
2018-May-03 04:59N 27°55' W 082°25'0 0.0
2018-May-03 04:29N 27°55' W 082°25'0 0.0
2018-May-03 03:59N 27°55' W 082°25'0 0.0
2018-May-03 03:29N 27°55' W 082°25'0 0.0
2018-May-03 02:59N 27°55' W 082°25'0 0.0
2018-May-03 02:29N 27°55' W 082°25'0 0.0
2018-May-03 01:59N 27°55' W 082°25'0 0.0
2018-May-03 01:29N 27°55' W 082°25'0 0.0
2018-May-03 00:59N 27°55' W 082°25'0 0.0
2018-May-03 00:29N 27°55' W 082°25'0 0.0
2018-May-02 23:59N 27°55' W 082°25'0 0.0
2018-May-02 23:29N 27°55' W 082°25'0 0.0
2018-May-02 22:59N 27°55' W 082°25'0 0.0
2018-May-02 22:29N 27°55' W 082°25'0 0.0
2018-May-02 21:59N 27°55' W 082°25'0 0.0
2018-May-02 21:29N 27°55' W 082°25'0 0.0
2018-May-02 20:59N 27°55' W 082°25'1 1.9
2018-May-02 20:30N 27°54' W 082°26'5 9.2
2018-May-02 20:00N 27°50' W 082°27'510.5
2018-May-02 19:30N 27°47' W 082°31'611.5
2018-May-02 19:00N 27°41' W 082°34'611.8
2018-May-02 18:28N 27°37' W 082°39'612.2
2018-May-02 17:58N 27°37' W 082°46'  

Dump ship's entire track history